createdAt,value
2022-10-31T00:01:21.204Z,249.25
2022-10-31T00:03:48.831Z,195.65
2022-10-31T00:06:19.062Z,317.37
2022-10-31T00:08:53.451Z,166.77
2022-10-31T00:11:20.904Z,319.83
2022-10-31T00:13:48.039Z,209.23
2022-10-31T00:16:19.910Z,310.38
2022-10-31T00:18:54.877Z,197.27
2022-10-31T00:21:22.808Z,295.75
2022-10-31T00:23:50.142Z,143.95
2022-10-31T00:26:17.653Z,76.47
2022-10-31T00:28:44.660Z,133.50
2022-10-31T00:31:13.807Z,113.55
2022-10-31T00:33:41.633Z,150.65
2022-10-31T00:36:12.616Z,133.07
2022-10-31T00:38:41.420Z,193.25
2022-10-31T00:41:08.934Z,133.65
2022-10-31T00:43:35.961Z,210.95
2022-10-31T00:46:03.355Z,184.50
2022-10-31T00:48:30.730Z,90.22
2022-10-31T00:50:57.923Z,204.00
2022-10-31T00:53:25.349Z,309.92
2022-10-31T00:55:53.111Z,251.25
2022-10-31T00:58:20.169Z,421.20
2022-10-31T01:00:56.949Z,258.33
2022-10-31T01:03:32.312Z,595.85
2022-10-31T01:06:05.865Z,319.87
2022-10-31T01:08:33.432Z,419.23
2022-10-31T01:11:18.583Z,367.73
2022-10-31T01:13:46.044Z,377.08
2022-10-31T01:16:15.629Z,438.63
2022-10-31T01:18:43.289Z,196.87
2022-10-31T01:21:16.090Z,407.20
2022-10-31T01:23:43.439Z,408.20
2022-10-31T01:26:20.713Z,381.73
2022-10-31T01:28:50.977Z,308.52
2022-10-31T01:31:19.592Z,404.08
2022-10-31T01:33:46.786Z,430.00
2022-10-31T01:36:20.232Z,545.55
2022-10-31T01:38:51.017Z,468.17
2022-10-31T01:41:24.034Z,344.52
2022-10-31T01:44:00.640Z,359.98
2022-10-31T01:46:36.207Z,472.92
2022-10-31T01:49:07.300Z,342.05
2022-10-31T01:51:38.007Z,242.80
2022-10-31T01:54:09.642Z,334.30
2022-10-31T01:56:40.432Z,354.15
2022-10-31T01:59:10.292Z,395.10
2022-10-31T02:01:38.557Z,263.10
2022-10-31T02:04:07.089Z,346.45
2022-10-31T02:06:41.312Z,205.10
2022-10-31T02:09:08.759Z,347.20
2022-10-31T02:11:37.143Z,416.23
2022-10-31T02:14:04.510Z,289.25
2022-10-31T02:16:32.123Z,397.25
2022-10-31T02:18:59.180Z,316.92
2022-10-31T02:21:39.188Z,212.95
2022-10-31T02:24:44.768Z,503.70
2022-10-31T02:27:27.127Z,466.65
2022-10-31T02:30:11.079Z,420.38
2022-10-31T02:33:16.989Z,301.60
2022-10-31T02:36:06.661Z,351.15
2022-10-31T02:38:42.924Z,284.67
2022-10-31T02:41:50.098Z,225.98
2022-10-31T02:44:31.941Z,268.37
2022-10-31T02:47:00.783Z,301.77
2022-10-31T02:49:41.729Z,342.33
2022-10-31T02:52:24.840Z,449.95
2022-10-31T02:54:53.385Z,333.17
2022-10-31T02:57:32.105Z,360.63
2022-10-31T03:00:04.936Z,232.68
2022-10-31T03:02:39.971Z,422.15
2022-10-31T03:05:31.228Z,376.30
2022-10-31T03:07:58.453Z,197.52
2022-10-31T03:10:53.215Z,238.20
2022-10-31T03:13:39.742Z,280.23
2022-10-31T03:16:28.601Z,562.28
2022-10-31T03:19:03.315Z,314.45
2022-10-31T03:21:41.596Z,210.50
2022-10-31T03:24:09.799Z,199.45
2022-10-31T03:26:39.314Z,182.07
2022-10-31T03:29:07.991Z,510.73
2022-10-31T03:32:09.637Z,176.93
2022-10-31T03:34:38.069Z,287.42
2022-10-31T03:37:08.003Z,387.23
2022-10-31T03:39:35.478Z,317.95
2022-10-31T03:42:12.792Z,166.18
2022-10-31T03:44:43.138Z,181.57
2022-10-31T03:47:10.197Z,282.83
2022-10-31T03:49:37.377Z,175.60
2022-10-31T03:52:27.698Z,225.55
2022-10-31T03:54:59.974Z,141.55
2022-10-31T03:57:32.894Z,191.40
2022-10-31T04:00:10.303Z,110.55
2022-10-31T04:03:04.866Z,75.15
2022-10-31T04:05:32.844Z,107.00
2022-10-31T04:08:01.819Z,111.28
2022-10-31T04:10:32.863Z,66.45
2022-10-31T04:13:08.234Z,188.75
2022-10-31T04:15:37.200Z,150.62
2022-10-31T04:18:05.543Z,92.65
2022-10-31T04:20:40.913Z,152.73
2022-10-31T04:23:23.709Z,126.68
2022-10-31T04:25:51.104Z,25.40
2022-10-31T04:30:51.705Z,81.13
2022-10-31T04:33:19.481Z,82.70
2022-10-31T04:35:47.162Z,112.78
2022-10-31T04:38:14.216Z,94.15
2022-10-31T04:40:41.757Z,94.78
2022-10-31T04:43:09.713Z,138.27
2022-10-31T04:45:39.212Z,210.30
2022-10-31T04:48:07.229Z,75.65
2022-10-31T04:50:34.703Z,83.75
2022-10-31T04:53:02.186Z,100.82
2022-10-31T04:55:30.852Z,70.22
2022-10-31T04:57:59.814Z,44.80
2022-10-31T05:00:27.447Z,153.52
2022-10-31T05:02:57.929Z,67.35
2022-10-31T05:05:31.564Z,87.03
2022-10-31T05:07:58.935Z,114.65
2022-10-31T05:10:29.225Z,161.68
2022-10-31T05:13:01.031Z,96.25
2022-10-31T05:15:30.512Z,253.88
2022-10-31T05:18:02.004Z,173.87
2022-10-31T05:20:31.415Z,78.50
2022-10-31T05:23:00.220Z,208.82
2022-10-31T05:25:29.292Z,98.82
2022-10-31T05:27:57.611Z,98.25
2022-10-31T05:30:31.129Z,191.27
2022-10-31T05:32:59.229Z,36.33
2022-10-31T05:35:33.249Z,127.20
2022-10-31T05:38:01.983Z,216.70
2022-10-31T05:40:29.491Z,89.53
2022-10-31T05:42:58.030Z,161.77
2022-10-31T05:45:25.965Z,231.50
2022-10-31T05:47:53.917Z,110.12
2022-10-31T05:50:22.794Z,193.18
2022-10-31T05:52:57.482Z,115.68
2022-10-31T05:55:26.587Z,232.82
2022-10-31T05:57:55.574Z,402.45
2022-10-31T06:00:23.818Z,201.48
2022-10-31T06:02:50.643Z,211.30
2022-10-31T06:05:20.070Z,312.08
2022-10-31T06:07:47.034Z,200.55
2022-10-31T06:10:14.181Z,190.32
2022-10-31T06:12:41.687Z,163.82
2022-10-31T06:15:09.910Z,229.60
2022-10-31T06:17:37.090Z,425.42
2022-10-31T06:20:06.693Z,310.10
2022-10-31T06:22:35.412Z,471.63
2022-10-31T06:25:02.532Z,329.38
2022-10-31T06:27:30.122Z,424.00
2022-10-31T06:29:57.564Z,361.08
2022-10-31T06:32:24.967Z,194.95
2022-10-31T06:34:52.329Z,237.07
2022-10-31T06:37:19.477Z,366.52
2022-10-31T06:39:46.730Z,260.88
2022-10-31T06:42:17.101Z,101.78
2022-10-31T06:44:44.256Z,195.80
2022-10-31T06:47:17.412Z,205.53
2022-10-31T06:49:45.583Z,237.95
2022-10-31T06:52:13.044Z,323.77
2022-10-31T06:54:40.358Z,525.38
2022-10-31T06:57:07.515Z,502.05
2022-10-31T06:59:37.363Z,461.52
2022-10-31T07:02:06.263Z,295.00
2022-10-31T07:04:33.727Z,375.65
2022-10-31T07:07:01.399Z,193.68
2022-10-31T07:09:28.695Z,267.65
2022-10-31T07:11:56.038Z,286.65
2022-10-31T07:14:23.332Z,346.13
2022-10-31T07:16:51.589Z,257.42
2022-10-31T07:19:19.135Z,412.20
2022-10-31T07:21:46.176Z,270.55
2022-10-31T07:24:14.462Z,228.40
2022-10-31T07:26:48.484Z,254.27
2022-10-31T07:29:15.817Z,109.07
2022-10-31T07:31:45.060Z,151.87
2022-10-31T07:34:12.387Z,240.12
2022-10-31T07:36:42.664Z,202.85
2022-10-31T07:39:09.760Z,355.98
2022-10-31T07:41:36.877Z,223.00
2022-10-31T07:44:04.392Z,281.92
2022-10-31T07:46:34.178Z,209.37
2022-10-31T07:49:07.841Z,284.77
2022-10-31T07:51:45.559Z,189.95
2022-10-31T07:54:13.968Z,146.37
2022-10-31T07:56:44.148Z,114.03
2022-10-31T07:59:11.330Z,218.65
2022-10-31T08:01:38.339Z,275.38
2022-10-31T08:04:06.147Z,165.93
2022-10-31T08:06:40.288Z,300.42
2022-10-31T08:09:07.823Z,153.60
2022-10-31T08:11:34.922Z,99.87
2022-10-31T08:14:02.207Z,109.40
2022-10-31T08:16:29.513Z,118.85
2022-10-31T08:18:56.839Z,104.05
2022-10-31T08:21:24.004Z,54.80
2022-10-31T08:23:51.340Z,128.60
2022-10-31T08:26:19.493Z,78.30
2022-10-31T08:28:47.466Z,178.32
2022-10-31T08:31:14.927Z,87.60
2022-10-31T08:33:46.862Z,35.30
2022-10-31T08:36:19.676Z,151.23
2022-10-31T08:38:48.277Z,222.20
2022-10-31T08:41:16.513Z,72.85
2022-10-31T08:43:43.531Z,79.35
2022-10-31T08:46:11.799Z,179.30
2022-10-31T08:48:39.909Z,263.15
2022-10-31T08:51:07.379Z,235.05
2022-10-31T08:53:34.372Z,86.55
2022-10-31T08:56:03.977Z,201.02
2022-10-31T08:58:30.963Z,212.18
2022-10-31T09:01:00.446Z,123.57
2022-10-31T09:03:30.674Z,219.02
2022-10-31T09:05:59.928Z,264.90
2022-10-31T09:08:30.618Z,219.55
2022-10-31T09:10:58.451Z,289.30
2022-10-31T09:13:28.191Z,102.55
2022-10-31T09:15:59.691Z,79.28
2022-10-31T09:18:28.911Z,336.35
2022-10-31T09:20:58.978Z,161.48
2022-10-31T09:23:27.789Z,242.15
2022-10-31T09:25:55.393Z,96.03
2022-10-31T09:28:24.681Z,178.93
2022-10-31T09:30:54.031Z,80.93
2022-10-31T09:33:21.994Z,295.02
2022-10-31T09:35:51.304Z,288.98
2022-10-31T09:38:20.312Z,294.05
2022-10-31T09:40:55.767Z,248.80
2022-10-31T09:43:49.151Z,312.45
2022-10-31T09:46:27.617Z,329.42
2022-10-31T09:49:13.974Z,196.68
2022-10-31T09:51:53.072Z,182.60
2022-10-31T09:54:50.714Z,175.77
2022-10-31T09:57:26.724Z,151.90
2022-10-31T09:59:54.642Z,233.40
2022-10-31T10:02:26.921Z,174.55
2022-10-31T10:05:06.424Z,164.23
2022-10-31T10:07:40.524Z,193.00
2022-10-31T10:10:32.678Z,51.45
2022-10-31T10:13:21.569Z,175.07
2022-10-31T10:16:14.283Z,283.02
2022-10-31T10:18:54.195Z,277.58
2022-10-31T10:21:32.672Z,390.08
2022-10-31T10:24:20.128Z,151.32
2022-10-31T10:27:23.561Z,218.45
2022-10-31T10:29:59.804Z,146.10
2022-10-31T10:32:32.194Z,204.95
2022-10-31T10:35:22.309Z,259.10
2022-10-31T10:37:52.211Z,118.35
2022-10-31T10:40:25.948Z,140.60
2022-10-31T10:46:11.739Z,109.50
2022-10-31T10:48:54.650Z,87.47
2022-10-31T10:51:39.033Z,78.97
2022-10-31T10:54:20.261Z,70.00
2022-10-31T10:56:56.824Z,89.32
2022-10-31T10:59:24.234Z,41.75
2022-10-31T11:01:52.585Z,46.25
2022-10-31T11:04:35.751Z,112.53
2022-10-31T11:07:08.044Z,97.70
2022-10-31T11:09:36.236Z,133.95
2022-10-31T11:12:31.137Z,91.05
2022-10-31T11:17:39.666Z,252.18
2022-10-31T11:20:29.831Z,223.55
2022-10-31T11:23:24.472Z,142.50
2022-10-31T11:26:06.507Z,156.10
2022-10-31T11:28:35.961Z,101.65
2022-10-31T11:31:29.193Z,159.23
2022-10-31T11:34:12.397Z,215.12
2022-10-31T11:36:40.558Z,205.02
2022-10-31T11:39:17.867Z,89.60
2022-10-31T11:41:45.119Z,121.35
2022-10-31T11:44:29.883Z,74.50
2022-10-31T11:47:06.653Z,55.25
2022-10-31T11:49:40.189Z,44.65
2022-10-31T11:52:17.685Z,68.62
2022-10-31T11:55:14.687Z,184.37
2022-10-31T11:57:46.612Z,120.32
2022-10-31T12:00:34.492Z,107.03
2022-10-31T12:03:29.207Z,62.62
2022-10-31T12:06:09.341Z,81.70
2022-10-31T12:08:37.904Z,104.28
2022-10-31T12:11:31.116Z,206.73
2022-10-31T12:14:21.684Z,137.05
2022-10-31T12:17:03.470Z,65.85
2022-10-31T12:19:40.820Z,109.05
2022-10-31T12:22:19.956Z,72.80
2022-10-31T12:25:03.099Z,102.75
2022-10-31T12:27:39.350Z,46.85
2022-10-31T12:30:22.248Z,46.20
2022-10-31T12:32:58.336Z,55.58
2022-10-31T12:35:46.250Z,28.25
2022-10-31T12:38:34.677Z,64.87
2022-10-31T12:41:11.198Z,111.53
2022-10-31T12:44:05.753Z,40.95
2022-10-31T12:46:41.976Z,40.28
2022-10-31T12:49:21.323Z,48.38
2022-10-31T12:52:20.794Z,45.22
2022-10-31T12:55:19.918Z,88.65
2022-10-31T12:57:51.702Z,83.07
2022-10-31T13:00:20.485Z,90.80
2022-10-31T13:03:11.467Z,50.50
2022-10-31T13:05:41.411Z,62.22
2022-10-31T13:08:30.095Z,111.78
2022-10-31T13:11:10.910Z,137.75
2022-10-31T13:13:53.142Z,50.35
2022-10-31T13:16:23.249Z,74.78
2022-10-31T13:19:01.552Z,94.75
2022-10-31T13:21:46.264Z,35.60
2022-10-31T13:24:19.065Z,30.05
2022-10-31T13:26:51.890Z,106.85
2022-10-31T13:29:31.806Z,105.93
2022-10-31T13:32:01.969Z,78.12
2022-10-31T13:34:41.964Z,113.93
2022-10-31T13:37:33.532Z,115.55
2022-10-31T13:40:28.336Z,126.30
2022-10-31T13:42:58.469Z,118.50
2022-10-31T13:45:27.063Z,142.77
2022-10-31T13:48:01.667Z,166.18
2022-10-31T13:50:31.542Z,182.37
2022-10-31T13:53:36.405Z,208.95
2022-10-31T13:56:16.657Z,202.57
2022-10-31T13:58:58.223Z,273.70
2022-10-31T14:01:25.776Z,155.60
2022-10-31T14:04:13.886Z,119.07
2022-10-31T14:06:59.881Z,225.02
2022-10-31T14:09:34.162Z,191.48
2022-10-31T14:12:05.549Z,145.43
2022-10-31T14:14:40.523Z,102.20
2022-10-31T14:17:17.324Z,209.45
2022-10-31T14:19:44.596Z,251.07
2022-10-31T14:22:22.679Z,198.25
2022-10-31T14:24:49.935Z,190.23
2022-10-31T14:27:27.300Z,152.05
2022-10-31T14:29:54.846Z,67.62
2022-10-31T14:32:26.790Z,153.57
2022-10-31T14:34:58.340Z,169.23
2022-10-31T14:37:40.982Z,212.85
2022-10-31T14:40:26.570Z,163.82
2022-10-31T14:43:15.488Z,83.00
2022-10-31T14:45:54.593Z,179.32
2022-10-31T14:48:40.044Z,177.55
2022-10-31T14:51:24.428Z,188.98
2022-10-31T14:53:56.140Z,170.12
2022-10-31T14:56:30.752Z,184.35
2022-10-31T14:59:02.056Z,147.07
2022-10-31T15:01:35.954Z,202.87
2022-10-31T15:04:24.646Z,162.48
2022-10-31T15:07:01.349Z,127.10
2022-10-31T15:09:36.193Z,199.15
2022-10-31T15:12:30.351Z,333.45
2022-10-31T15:14:59.410Z,298.15
2022-10-31T15:17:27.566Z,184.85
2022-10-31T15:19:54.652Z,181.65
2022-10-31T15:22:24.691Z,148.30
2022-10-31T15:24:57.338Z,187.30
2022-10-31T15:27:25.741Z,220.18
2022-10-31T15:29:57.159Z,260.63
2022-10-31T15:32:29.247Z,234.40
2022-10-31T15:34:57.683Z,258.67
2022-10-31T15:37:26.456Z,190.68
2022-10-31T15:39:53.877Z,220.88
2022-10-31T15:42:33.902Z,83.85
2022-10-31T15:45:03.611Z,233.70
2022-10-31T15:47:32.048Z,278.12
2022-10-31T15:50:00.647Z,251.77
2022-10-31T15:52:48.602Z,303.90
2022-10-31T15:55:36.090Z,244.55
2022-10-31T15:58:15.392Z,275.67
2022-10-31T16:00:42.577Z,169.77
2022-10-31T16:03:15.724Z,434.42
2022-10-31T16:05:56.756Z,439.00
2022-10-31T16:08:30.134Z,304.33
2022-10-31T16:11:04.098Z,401.80
2022-10-31T16:13:34.738Z,320.88
2022-10-31T16:18:54.784Z,347.75
2022-10-31T16:21:32.815Z,356.17
2022-10-31T16:24:05.995Z,417.33
2022-10-31T16:26:34.099Z,383.15
2022-10-31T16:29:08.503Z,280.42
2022-10-31T16:31:40.497Z,217.73
2022-10-31T16:34:22.374Z,250.38
2022-10-31T16:36:52.322Z,149.68
2022-10-31T16:39:19.718Z,100.72
2022-10-31T16:41:50.440Z,225.07
2022-10-31T16:44:25.649Z,220.07
2022-10-31T16:47:09.740Z,218.48
2022-10-31T16:49:36.775Z,191.88
2022-10-31T16:52:04.142Z,214.12
2022-10-31T16:54:31.177Z,168.75
2022-10-31T16:56:59.853Z,181.35
2022-10-31T16:59:28.259Z,302.38
2022-10-31T17:01:55.647Z,340.55
2022-10-31T17:04:22.908Z,360.55
2022-10-31T17:06:50.172Z,297.92
2022-10-31T17:09:19.119Z,258.38
2022-10-31T17:11:49.607Z,284.77
2022-10-31T17:14:18.025Z,298.58
2022-10-31T17:16:45.067Z,183.62
2022-10-31T17:19:12.810Z,168.98
2022-10-31T17:21:40.393Z,84.35
2022-10-31T17:24:11.313Z,130.18
2022-10-31T17:26:38.323Z,244.27
2022-10-31T17:29:05.652Z,246.87
2022-10-31T17:31:36.102Z,284.77
2022-10-31T17:34:05.211Z,235.43
2022-10-31T17:36:34.114Z,250.07
2022-10-31T17:39:01.403Z,393.10
2022-10-31T17:41:28.391Z,383.67
2022-10-31T17:43:59.441Z,386.30
2022-10-31T17:46:27.036Z,241.57
2022-10-31T17:48:54.093Z,282.23
2022-10-31T17:51:21.405Z,334.52
2022-10-31T17:53:48.432Z,252.27
2022-10-31T17:56:15.444Z,310.58
2022-10-31T17:58:42.759Z,215.10
2022-10-31T18:01:12.020Z,123.30
2022-10-31T18:03:40.042Z,101.78
2022-10-31T18:06:07.504Z,57.72
2022-10-31T18:08:36.801Z,75.87
2022-10-31T18:11:09.591Z,73.95
2022-10-31T18:13:37.613Z,127.53
2022-10-31T18:16:13.135Z,134.85
2022-10-31T18:18:40.224Z,184.50
2022-10-31T18:21:07.529Z,178.80
2022-10-31T18:23:34.542Z,167.25
2022-10-31T18:26:01.850Z,274.48
2022-10-31T18:28:29.103Z,317.87
2022-10-31T18:30:59.440Z,439.45
2022-10-31T18:33:26.414Z,365.70
2022-10-31T18:35:53.706Z,394.05
2022-10-31T18:38:20.702Z,286.05
2022-10-31T18:40:47.903Z,190.98
2022-10-31T18:43:15.331Z,230.98
2022-10-31T18:45:52.331Z,268.30
2022-10-31T18:48:22.694Z,236.40
2022-10-31T18:50:49.710Z,173.77
2022-10-31T18:53:16.697Z,231.00
2022-10-31T18:55:47.488Z,229.45
2022-10-31T18:58:17.807Z,342.87
2022-10-31T19:00:46.032Z,276.88
2022-10-31T19:03:14.216Z,344.23
2022-10-31T19:05:41.250Z,344.17
2022-10-31T19:08:08.710Z,369.70
2022-10-31T19:10:37.257Z,313.20
2022-10-31T19:13:04.892Z,344.48
2022-10-31T19:15:34.662Z,297.10
2022-10-31T19:18:01.840Z,315.05
2022-10-31T19:20:29.563Z,334.67
2022-10-31T19:22:56.880Z,293.25
2022-10-31T19:25:23.854Z,419.52
2022-10-31T19:27:50.946Z,405.52
2022-10-31T19:30:18.859Z,344.85
2022-10-31T19:32:45.820Z,268.95
2022-10-31T19:35:12.832Z,228.37
2022-10-31T19:37:40.555Z,245.05
2022-10-31T19:40:11.136Z,159.37
2022-10-31T19:42:38.116Z,258.92
2022-10-31T19:45:05.893Z,303.33
2022-10-31T19:47:33.356Z,310.60
2022-10-31T19:50:00.377Z,330.90
2022-10-31T19:52:27.672Z,412.75
2022-10-31T19:54:54.642Z,349.20
2022-10-31T19:57:30.812Z,149.05
2022-10-31T20:00:09.710Z,251.40
2022-10-31T20:02:38.477Z,259.15
2022-10-31T20:05:06.128Z,316.20
2022-10-31T20:07:33.132Z,307.27
2022-10-31T20:10:00.138Z,439.85
2022-10-31T20:12:27.439Z,432.25
2022-10-31T20:14:54.419Z,450.77
2022-10-31T20:17:21.427Z,507.40
2022-10-31T20:19:48.940Z,402.75
2022-10-31T20:22:16.005Z,455.58
2022-10-31T20:24:43.023Z,417.83
2022-10-31T20:27:10.304Z,483.25
2022-10-31T20:29:37.286Z,423.15
2022-10-31T20:32:04.529Z,544.47
2022-10-31T20:34:31.806Z,391.75
2022-10-31T20:36:58.807Z,524.62
2022-10-31T20:39:25.818Z,432.90
2022-10-31T20:41:53.708Z,459.60
2022-10-31T20:44:20.950Z,523.50
2022-10-31T20:46:47.936Z,548.30
2022-10-31T20:49:15.232Z,298.30
2022-10-31T20:51:42.241Z,547.10
2022-10-31T20:54:13.139Z,425.87
2022-10-31T20:56:40.595Z,402.58
2022-10-31T20:59:07.681Z,477.60
2022-10-31T21:01:36.435Z,449.42
2022-10-31T21:04:05.340Z,567.72
2022-10-31T21:06:32.331Z,595.80
2022-10-31T21:08:59.360Z,610.33
2022-10-31T21:11:27.834Z,664.00
2022-10-31T21:13:55.134Z,485.77
2022-10-31T21:16:27.478Z,440.40
2022-10-31T21:18:55.025Z,220.65
2022-10-31T21:21:32.126Z,180.02
2022-10-31T21:24:07.055Z,532.90
2022-10-31T21:26:37.330Z,454.48
2022-10-31T21:29:05.516Z,398.08
2022-10-31T21:31:32.797Z,410.48
2022-10-31T21:33:59.797Z,231.85
2022-10-31T21:36:27.101Z,288.77
2022-10-31T21:38:55.455Z,140.85
2022-10-31T21:41:23.436Z,134.98
2022-10-31T21:43:51.942Z,172.27
2022-10-31T21:46:24.280Z,211.70
2022-10-31T21:48:52.117Z,244.18
2022-10-31T21:51:22.118Z,291.95
2022-10-31T21:54:08.423Z,219.68
2022-10-31T21:56:42.568Z,122.47
2022-10-31T21:59:09.895Z,343.90
2022-10-31T22:01:37.757Z,270.52
2022-10-31T22:04:05.916Z,209.73
2022-10-31T22:06:33.098Z,348.98
2022-10-31T22:09:01.933Z,278.75
2022-10-31T22:11:29.437Z,329.63
2022-10-31T22:13:58.565Z,213.82
2022-10-31T22:16:26.890Z,274.85
2022-10-31T22:18:56.444Z,341.02
2022-10-31T22:21:25.350Z,428.80
2022-10-31T22:24:00.562Z,325.08
2022-10-31T22:26:31.156Z,360.90
2022-10-31T22:28:59.596Z,240.68
2022-10-31T22:31:27.774Z,191.85
2022-10-31T22:33:55.927Z,186.88
2022-10-31T22:36:28.302Z,223.13
2022-10-31T22:38:55.979Z,187.95
2022-10-31T22:41:25.126Z,346.05
2022-10-31T22:43:52.319Z,226.65
2022-10-31T22:46:22.429Z,193.65
2022-10-31T22:49:01.568Z,108.80
2022-10-31T22:51:33.145Z,213.48
2022-10-31T22:54:00.397Z,176.25
2022-10-31T22:56:30.785Z,294.02
2022-10-31T22:58:58.827Z,197.70
2022-10-31T23:01:28.901Z,271.48
2022-10-31T23:03:56.159Z,173.25
2022-10-31T23:06:25.603Z,192.40
2022-10-31T23:08:53.529Z,204.48
2022-10-31T23:11:29.137Z,285.17
2022-10-31T23:14:09.066Z,191.55
2022-10-31T23:16:51.063Z,215.48
2022-10-31T23:19:22.025Z,272.73
2022-10-31T23:21:57.617Z,255.02
2022-10-31T23:24:44.623Z,211.65
2022-10-31T23:27:21.352Z,189.77
2022-10-31T23:29:59.394Z,190.32
2022-10-31T23:32:30.340Z,156.95
2022-10-31T23:35:03.398Z,182.85
2022-10-31T23:37:33.654Z,221.27
2022-10-31T23:40:01.015Z,394.15
2022-10-31T23:42:28.592Z,197.07
2022-10-31T23:44:56.017Z,176.05
2022-10-31T23:47:23.415Z,171.45
2022-10-31T23:49:50.794Z,245.55
2022-10-31T23:52:18.661Z,308.38
2022-10-31T23:54:45.936Z,271.15
2022-10-31T23:57:14.354Z,281.67
2022-10-31T23:59:41.549Z,231.18
